Time;durP1;ratioP1;P1;durP2;ratioP2;P2;SDS_P1;SDS_P2;PMS_P1;PMS_P2;Temp;Humidity;BMP_temperature;BMP_pressure;BME280_temperature;BME280_humidity;BME280_pressure;Samples;Min_cycle;Max_cycle;Signal;HPM_P1;HPM_P2
2022/05/04 00:00:09;;;;;;;8.02;3.75;;;;;;;;;;5094181;28;20089;-25
2022/05/04 00:02:35;;;;;;;10.52;3.45;;;;;;;;;;5094367;28;20047;-25
2022/05/04 00:05:01;;;;;;;10.70;4.07;;;;;;;;;;5094398;28;20047;-25
2022/05/04 00:07:27;;;;;;;7.50;3.05;;;;;;;;;;5094088;28;20088;-25
2022/05/04 00:09:55;;;;;;;8.10;3.25;;;;;;;;;;5093754;28;20036;-25
2022/05/04 00:12:21;;;;;;;13.13;4.05;;;;;;;;;;5093821;28;20048;-25
2022/05/04 00:14:47;;;;;;;10.07;3.58;;;;;;;;;;5093809;28;20114;-25
2022/05/04 00:17:13;;;;;;;12.13;3.55;;;;;;;;;;5092860;28;20032;-27
2022/05/04 00:19:39;;;;;;;13.38;4.90;;;;;;;;;;5094005;28;20115;-25
2022/05/04 00:22:06;;;;;;;8.20;3.53;;;;;;;;;;5093569;28;20094;-25
2022/05/04 00:24:32;;;;;;;11.00;3.38;;;;;;;;;;5093879;28;20500;-25
2022/05/04 00:26:58;;;;;;;8.48;3.40;;;;;;;;;;5093833;28;20047;-25
2022/05/04 00:29:24;;;;;;;7.53;3.45;;;;;;;;;;5093582;28;20109;-28
2022/05/04 00:31:50;;;;;;;9.48;3.65;;;;;;;;;;5096503;28;20040;-29
2022/05/04 00:34:16;;;;;;;8.27;3.90;;;;;;;;;;5112164;28;20504;-28
2022/05/04 00:36:42;;;;;;;12.50;3.70;;;;;;;;;;5103813;28;20493;-28
2022/05/04 00:39:08;;;;;;;10.27;3.20;;;;;;;;;;5109511;28;20043;-28
2022/05/04 00:41:34;;;;;;;10.73;3.95;;;;;;;;;;5108298;28;20145;-27
2022/05/04 00:44:01;;;;;;;7.88;3.42;;;;;;;;;;5096133;28;20079;-29
2022/05/04 00:46:27;;;;;;;7.30;3.20;;;;;;;;;;5097198;28;20035;-28
2022/05/04 00:48:53;;;;;;;5.82;3.80;;;;;;;;;;5093003;28;20044;-30
2022/05/04 00:51:20;;;;;;;7.57;3.47;;;;;;;;;;5098319;28;20028;-28
2022/05/04 00:53:46;;;;;;;12.15;4.35;;;;;;;;;;5098387;28;20039;-31
2022/05/04 00:56:12;;;;;;;7.22;3.42;;;;;;;;;;5092774;28;20481;-29
2022/05/04 00:58:54;;;;;;;6.93;3.35;;;;;;;;;;5104459;28;20059;-28
2022/05/04 01:01:21;;;;;;;12.27;3.72;;;;;;;;;;5107326;27;20036;-31
2022/05/04 01:03:47;;;;;;;6.53;3.80;;;;;;;;;;5113464;28;20047;-29
2022/05/04 01:06:13;;;;;;;6.32;3.47;;;;;;;;;;5105805;28;20036;-29
2022/05/04 01:08:39;;;;;;;10.48;3.47;;;;;;;;;;5109767;28;20429;-29
2022/05/04 01:11:05;;;;;;;8.15;3.70;;;;;;;;;;5112925;28;20039;-28
2022/05/04 01:13:31;;;;;;;10.10;3.25;;;;;;;;;;5111284;28;20477;-28
2022/05/04 01:15:57;;;;;;;10.82;3.30;;;;;;;;;;5101512;28;20035;-28
2022/05/04 01:18:23;;;;;;;10.95;3.58;;;;;;;;;;5111563;28;20122;-31
2022/05/04 01:20:50;;;;;;;14.43;4.13;;;;;;;;;;5110533;28;20047;-29
2022/05/04 01:23:17;;;;;;;8.73;3.38;;;;;;;;;;5113010;28;20409;-30
2022/05/04 01:25:43;;;;;;;10.73;3.50;;;;;;;;;;5106352;28;20065;-28
2022/05/04 01:28:09;;;;;;;8.10;3.55;;;;;;;;;;5112843;28;20095;-29
2022/05/04 01:30:35;;;;;;;10.43;3.67;;;;;;;;;;5093231;28;20036;-28
2022/05/04 01:33:01;;;;;;;10.05;3.85;;;;;;;;;;5108103;28;20043;-25
2022/05/04 01:35:28;;;;;;;7.75;3.92;;;;;;;;;;5112710;28;20046;-27
2022/05/04 01:37:54;;;;;;;8.35;3.42;;;;;;;;;;5112832;28;20040;-26
2022/05/04 01:40:20;;;;;;;8.75;3.75;;;;;;;;;;5112877;28;20047;-25
2022/05/04 01:42:46;;;;;;;7.63;3.50;;;;;;;;;;5112923;28;20050;-26
2022/05/04 01:45:12;;;;;;;7.47;3.63;;;;;;;;;;5112603;28;20043;-26
2022/05/04 01:47:39;;;;;;;9.43;3.22;;;;;;;;;;5113098;28;20040;-26
2022/05/04 01:50:05;;;;;;;7.72;3.03;;;;;;;;;;5112902;28;20035;-26
2022/05/04 01:52:31;;;;;;;9.73;3.80;;;;;;;;;;5112785;28;20126;-26
2022/05/04 01:55:00;;;;;;;9.10;3.58;;;;;;;;;;5112757;28;20092;-26
2022/05/04 01:57:27;;;;;;;7.82;3.15;;;;;;;;;;5111392;28;20036;-26
2022/05/04 01:59:54;;;;;;;7.10;3.22;;;;;;;;;;5112281;28;20060;-26
2022/05/04 02:02:20;;;;;;;8.40;3.85;;;;;;;;;;5118039;27;20103;-29
2022/05/04 02:04:46;;;;;;;9.55;3.53;;;;;;;;;;5112219;27;20043;-27
2022/05/04 02:07:12;;;;;;;8.23;3.60;;;;;;;;;;5110896;28;20087;-28
2022/05/04 02:09:40;;;;;;;11.48;3.30;;;;;;;;;;5104051;28;20039;-30
2022/05/04 02:12:07;;;;;;;9.05;3.60;;;;;;;;;;5110585;28;20115;-29
2022/05/04 02:14:33;;;;;;;8.75;3.47;;;;;;;;;;5104149;28;20152;-29
2022/05/04 02:17:00;;;;;;;11.32;4.22;;;;;;;;;;5097946;28;20036;-28
2022/05/04 02:19:26;;;;;;;7.25;3.42;;;;;;;;;;5092400;28;20048;-30
2022/05/04 02:21:52;;;;;;;9.77;3.50;;;;;;;;;;5100717;28;20116;-30
2022/05/04 02:24:19;;;;;;;9.70;3.58;;;;;;;;;;5110911;28;20040;-29
2022/05/04 02:26:45;;;;;;;9.68;3.97;;;;;;;;;;5106993;28;20040;-27
2022/05/04 02:29:11;;;;;;;10.20;3.63;;;;;;;;;;5099695;28;20050;-28
2022/05/04 02:31:37;;;;;;;8.75;3.67;;;;;;;;;;5116821;27;20541;-28
2022/05/04 02:34:03;;;;;;;7.18;3.15;;;;;;;;;;5111600;28;20035;-27
2022/05/04 02:39:14;;;;;;;7.63;3.10;;;;;;;;;;5092525;28;20489;-30
2022/05/04 02:41:40;;;;;;;9.98;3.47;;;;;;;;;;5091254;28;20412;-30
2022/05/04 02:44:07;;;;;;;7.78;3.38;;;;;;;;;;5093431;28;20040;-32
2022/05/04 02:46:33;;;;;;;8.02;3.45;;;;;;;;;;5110736;28;20047;-31
2022/05/04 02:48:59;;;;;;;11.45;3.42;;;;;;;;;;5113022;28;20039;-28
2022/05/04 02:51:26;;;;;;;7.80;3.47;;;;;;;;;;5095145;28;20069;-31
2022/05/04 02:53:52;;;;;;;7.45;3.63;;;;;;;;;;5102938;28;20032;-30
2022/05/04 02:56:18;;;;;;;6.88;3.40;;;;;;;;;;5115317;28;20036;-29
2022/05/04 02:58:45;;;;;;;9.75;3.72;;;;;;;;;;5107900;28;20086;-30
2022/05/04 03:04:06;;;;;;;12.18;4.10;;;;;;;;;;5106027;28;20047;-29
2022/05/04 03:06:32;;;;;;;11.13;3.90;;;;;;;;;;5116312;28;20051;-28
2022/05/04 03:08:58;;;;;;;11.18;4.75;;;;;;;;;;5111840;28;20044;-28
2022/05/04 03:14:09;;;;;;;7.72;3.45;;;;;;;;;;5109401;28;20036;-30
2022/05/04 03:16:36;;;;;;;11.77;4.25;;;;;;;;;;5113718;28;20042;-31
2022/05/04 03:19:03;;;;;;;9.15;3.78;;;;;;;;;;5115613;28;20039;-29
2022/05/04 03:21:29;;;;;;;8.07;3.63;;;;;;;;;;5101912;28;20040;-29
2022/05/04 03:23:55;;;;;;;8.50;3.80;;;;;;;;;;5109038;28;20055;-27
2022/05/04 03:26:21;;;;;;;10.77;4.65;;;;;;;;;;5108582;28;20044;-29
2022/05/04 03:28:47;;;;;;;8.82;3.88;;;;;;;;;;5112390;27;20044;-30
2022/05/04 03:31:14;;;;;;;6.82;4.00;;;;;;;;;;5101721;28;20124;-28
2022/05/04 03:33:40;;;;;;;14.50;4.63;;;;;;;;;;5114137;28;20512;-27
2022/05/04 03:36:06;;;;;;;10.25;4.00;;;;;;;;;;5113859;28;20039;-25
2022/05/04 03:38:33;;;;;;;9.63;3.78;;;;;;;;;;5115611;28;20123;-25
2022/05/04 03:40:59;;;;;;;6.90;4.07;;;;;;;;;;5115730;28;20047;-27
2022/05/04 03:43:25;;;;;;;6.95;3.45;;;;;;;;;;5115804;28;20044;-28
2022/05/04 03:45:51;;;;;;;12.95;3.80;;;;;;;;;;5115591;28;20047;-28
2022/05/04 03:48:17;;;;;;;10.82;4.20;;;;;;;;;;5115611;28;20040;-25
2022/05/04 03:50:45;;;;;;;7.55;4.10;;;;;;;;;;5115214;28;20123;-27
2022/05/04 03:53:11;;;;;;;9.63;3.90;;;;;;;;;;5114678;28;20047;-26
2022/05/04 03:55:37;;;;;;;9.23;3.92;;;;;;;;;;5113971;28;20043;-27
2022/05/04 03:58:03;;;;;;;10.57;4.05;;;;;;;;;;5113776;28;20035;-28
2022/05/04 04:00:30;;;;;;;9.13;4.15;;;;;;;;;;5114892;28;20434;-27
2022/05/04 04:02:56;;;;;;;8.07;3.35;;;;;;;;;;5114810;28;20042;-27
2022/05/04 04:05:23;;;;;;;9.05;3.83;;;;;;;;;;5114595;28;20416;-28
2022/05/04 04:07:49;;;;;;;9.38;3.83;;;;;;;;;;5114145;28;20123;-27
2022/05/04 04:10:15;;;;;;;10.05;3.95;;;;;;;;;;5114516;28;20059;-28
2022/05/04 04:12:41;;;;;;;9.80;3.92;;;;;;;;;;5115089;28;20043;-26
2022/05/04 04:15:07;;;;;;;9.93;4.00;;;;;;;;;;5114506;28;20077;-27
2022/05/04 04:17:33;;;;;;;7.50;3.70;;;;;;;;;;5114319;28;20552;-28
2022/05/04 04:22:44;;;;;;;10.45;3.83;;;;;;;;;;5102450;28;20051;-31
2022/05/04 04:25:11;;;;;;;8.63;3.60;;;;;;;;;;5097675;28;20093;-28
2022/05/04 04:27:37;;;;;;;10.23;4.53;;;;;;;;;;5106560;27;20082;-29
2022/05/04 04:30:03;;;;;;;9.73;4.20;;;;;;;;;;5106829;27;20046;-29
2022/05/04 04:32:29;;;;;;;9.25;4.18;;;;;;;;;;5117303;27;20043;-29
2022/05/04 04:34:55;;;;;;;9.63;4.38;;;;;;;;;;5093058;28;20036;-30
2022/05/04 04:37:21;;;;;;;7.60;3.80;;;;;;;;;;5099179;28;20042;-29
2022/05/04 04:39:47;;;;;;;10.05;4.30;;;;;;;;;;5113506;28;20047;-31
2022/05/04 04:42:13;;;;;;;9.85;4.60;;;;;;;;;;5107396;27;20059;-31
2022/05/04 04:44:39;;;;;;;9.85;4.13;;;;;;;;;;5114062;28;20042;-29
2022/05/04 04:47:06;;;;;;;9.82;3.95;;;;;;;;;;5102596;28;20054;-30
2022/05/04 04:49:32;;;;;;;9.63;4.40;;;;;;;;;;5093129;28;20051;-29
2022/05/04 04:51:58;;;;;;;10.90;3.83;;;;;;;;;;5092977;28;20565;-28
2022/05/04 04:54:24;;;;;;;9.48;3.55;;;;;;;;;;5113305;28;20050;-29
2022/05/04 04:56:50;;;;;;;8.23;4.03;;;;;;;;;;5113594;28;20051;-28
2022/05/04 04:59:16;;;;;;;9.38;4.10;;;;;;;;;;5093328;28;20039;-30
2022/05/04 05:01:42;;;;;;;8.80;3.97;;;;;;;;;;5096799;28;20040;-28
2022/05/04 05:04:08;;;;;;;9.40;4.47;;;;;;;;;;5102978;28;20039;-29
2022/05/04 05:06:36;;;;;;;10.38;4.20;;;;;;;;;;5120537;27;20060;-29
2022/05/04 05:09:02;;;;;;;10.32;4.20;;;;;;;;;;5106822;28;20552;-29
2022/05/04 05:11:29;;;;;;;13.52;4.50;;;;;;;;;;5095317;28;20032;-30
2022/05/04 05:16:40;;;;;;;11.20;4.68;;;;;;;;;;5091337;28;20097;-30
2022/05/04 05:19:07;;;;;;;9.52;3.72;;;;;;;;;;5105619;28;20050;-30
2022/05/04 05:21:37;;;;;;;10.93;3.85;;;;;;;;;;5113243;28;20047;-25
2022/05/04 05:24:06;;;;;;;9.50;4.32;;;;;;;;;;5096801;28;20075;-30
2022/05/04 05:26:32;;;;;;;8.20;3.35;;;;;;;;;;5092206;28;20040;-27
2022/05/04 05:28:58;;;;;;;12.23;4.32;;;;;;;;;;5092360;28;20042;-28
2022/05/04 05:31:25;;;;;;;6.53;3.78;;;;;;;;;;5092471;28;20081;-29
2022/05/04 05:33:51;;;;;;;7.95;3.47;;;;;;;;;;5102264;28;20032;-28
2022/05/04 05:36:18;;;;;;;9.45;3.78;;;;;;;;;;5112782;28;20036;-28
2022/05/04 05:38:45;;;;;;;9.45;3.72;;;;;;;;;;5104404;28;20036;-27
2022/05/04 05:41:11;;;;;;;6.57;3.85;;;;;;;;;;5091147;28;20108;-29
2022/05/04 05:43:37;;;;;;;7.28;3.60;;;;;;;;;;5091088;28;20083;-26
2022/05/04 05:46:03;;;;;;;7.35;3.13;;;;;;;;;;5091193;28;20040;-26
2022/05/04 05:48:29;;;;;;;5.88;3.58;;;;;;;;;;5092679;28;20511;-26
2022/05/04 05:50:56;;;;;;;8.77;3.30;;;;;;;;;;5091232;28;20048;-28
2022/05/04 05:53:22;;;;;;;9.15;3.60;;;;;;;;;;5092220;28;20073;-27
2022/05/04 05:55:49;;;;;;;8.52;2.97;;;;;;;;;;5092569;28;20036;-28
2022/05/04 05:58:15;;;;;;;7.85;3.28;;;;;;;;;;5092380;28;20536;-28
2022/05/04 06:00:41;;;;;;;10.90;3.35;;;;;;;;;;5092221;28;20506;-27
2022/05/04 06:03:07;;;;;;;9.02;3.15;;;;;;;;;;5092179;28;20040;-27
2022/05/04 06:05:34;;;;;;;8.98;2.83;;;;;;;;;;5092361;28;20115;-28
2022/05/04 06:08:00;;;;;;;6.32;3.05;;;;;;;;;;5093006;28;20032;-28
2022/05/04 06:10:26;;;;;;;8.60;3.03;;;;;;;;;;5091970;28;20405;-28
2022/05/04 06:12:52;;;;;;;4.40;2.50;;;;;;;;;;5091924;28;20482;-27
2022/05/04 06:15:18;;;;;;;10.82;3.35;;;;;;;;;;5091652;28;20036;-28
2022/05/04 06:17:46;;;;;;;6.10;2.72;;;;;;;;;;5073444;28;20036;-27
2022/05/04 06:20:12;;;;;;;6.93;2.97;;;;;;;;;;5090908;28;20132;-26
2022/05/04 06:22:38;;;;;;;7.18;3.42;;;;;;;;;;5091594;28;20397;-28
2022/05/04 06:25:05;;;;;;;8.80;3.90;;;;;;;;;;5091508;28;20122;-27
2022/05/04 06:27:32;;;;;;;8.18;3.15;;;;;;;;;;5091186;28;20048;-27
2022/05/04 06:35:29;;;;;;;9.52;3.63;;;;;;;;;;5091640;28;20054;-27
2022/05/04 06:37:56;;;;;;;9.10;3.20;;;;;;;;;;5091556;28;20047;-27
2022/05/04 06:40:22;;;;;;;7.65;3.38;;;;;;;;;;5091379;28;20498;-27
2022/05/04 06:42:49;;;;;;;5.68;3.05;;;;;;;;;;5091333;28;20064;-27
2022/05/04 06:45:15;;;;;;;8.65;3.30;;;;;;;;;;5091322;28;20066;-27
2022/05/04 06:47:42;;;;;;;7.63;3.75;;;;;;;;;;5091274;28;20046;-27
2022/05/04 06:50:10;;;;;;;6.82;3.10;;;;;;;;;;5091073;28;20040;-27
2022/05/04 06:52:37;;;;;;;6.93;3.67;;;;;;;;;;5091317;28;20044;-28
2022/05/04 06:55:03;;;;;;;6.28;3.00;;;;;;;;;;5091786;28;20115;-27
2022/05/04 06:57:30;;;;;;;5.93;3.00;;;;;;;;;;5091447;28;20501;-27
2022/05/04 06:59:59;;;;;;;6.18;3.00;;;;;;;;;;5091323;28;20046;-28
2022/05/04 07:02:25;;;;;;;6.65;2.95;;;;;;;;;;5090691;28;20047;-29
2022/05/04 07:04:51;;;;;;;7.35;3.83;;;;;;;;;;5090974;28;20051;-27
2022/05/04 07:07:17;;;;;;;9.60;3.15;;;;;;;;;;5091374;28;20036;-27
2022/05/04 07:09:43;;;;;;;8.20;3.67;;;;;;;;;;5091135;28;20072;-28
2022/05/04 07:12:10;;;;;;;12.75;3.83;;;;;;;;;;5091156;28;20036;-26
2022/05/04 07:14:36;;;;;;;7.95;3.10;;;;;;;;;;5090901;28;20032;-26
2022/05/04 07:17:02;;;;;;;10.05;3.42;;;;;;;;;;5091045;28;20043;-28
2022/05/04 07:19:28;;;;;;;8.35;3.67;;;;;;;;;;5090753;28;20072;-27
2022/05/04 07:21:54;;;;;;;6.32;3.50;;;;;;;;;;5090670;28;20051;-27
2022/05/04 07:24:20;;;;;;;6.22;3.55;;;;;;;;;;5090974;28;20067;-28
2022/05/04 07:26:46;;;;;;;11.52;3.92;;;;;;;;;;5089641;28;20040;-29
2022/05/04 07:29:12;;;;;;;8.85;3.38;;;;;;;;;;5090002;28;20036;-29
2022/05/04 07:31:38;;;;;;;5.95;3.05;;;;;;;;;;5091230;28;20043;-28
2022/05/04 07:34:04;;;;;;;8.32;3.55;;;;;;;;;;5094556;28;20032;-28
2022/05/04 07:36:30;;;;;;;6.60;3.50;;;;;;;;;;5094371;28;20494;-27
2022/05/04 07:38:56;;;;;;;8.63;3.67;;;;;;;;;;5094513;28;20062;-28
2022/05/04 07:44:07;;;;;;;6.15;3.83;;;;;;;;;;5094464;28;20125;-27
2022/05/04 07:46:33;;;;;;;7.53;3.50;;;;;;;;;;5094080;28;20050;-29
2022/05/04 07:49:00;;;;;;;9.05;3.97;;;;;;;;;;5094345;28;20037;-29
2022/05/04 07:51:26;;;;;;;9.65;3.78;;;;;;;;;;5093966;28;20036;-28
2022/05/04 07:53:52;;;;;;;7.63;3.80;;;;;;;;;;5094020;28;20075;-27
2022/05/04 07:56:18;;;;;;;4.28;3.30;;;;;;;;;;5093921;28;20043;-28
2022/05/04 07:58:44;;;;;;;8.90;3.55;;;;;;;;;;5094198;28;20094;-28
2022/05/04 08:06:40;;;;;;;9.75;4.20;;;;;;;;;;5091478;28;20043;-29
2022/05/04 08:09:06;;;;;;;7.45;3.60;;;;;;;;;;5091743;28;20040;-27
2022/05/04 08:11:32;;;;;;;7.38;3.38;;;;;;;;;;5092638;28;20101;-28
2022/05/04 08:13:58;;;;;;;8.55;3.72;;;;;;;;;;5092653;28;20036;-28
2022/05/04 08:16:24;;;;;;;7.38;4.30;;;;;;;;;;5073745;28;20495;-29
2022/05/04 08:18:50;;;;;;;6.45;3.20;;;;;;;;;;5089330;28;20397;-27
2022/05/04 08:21:16;;;;;;;6.65;3.97;;;;;;;;;;5092903;28;20401;-28
2022/05/04 08:23:42;;;;;;;8.30;3.75;;;;;;;;;;5093218;28;20386;-28
2022/05/04 08:26:10;;;;;;;8.55;3.60;;;;;;;;;;5093145;28;20047;-28
2022/05/04 08:28:36;;;;;;;8.30;4.00;;;;;;;;;;5092748;28;20048;-27
2022/05/04 08:31:02;;;;;;;9.52;3.95;;;;;;;;;;5093121;28;20044;-28
2022/05/04 08:33:28;;;;;;;9.73;3.65;;;;;;;;;;5093772;28;20089;-28
2022/05/04 08:35:54;;;;;;;7.30;3.72;;;;;;;;;;5093772;28;20040;-28
2022/05/04 08:38:22;;;;;;;8.45;3.80;;;;;;;;;;5093422;28;20167;-28
2022/05/04 08:40:48;;;;;;;7.43;3.92;;;;;;;;;;5093234;28;20044;-27
2022/05/04 08:43:14;;;;;;;7.53;3.63;;;;;;;;;;5093115;28;20038;-29
2022/05/04 08:45:41;;;;;;;8.20;3.40;;;;;;;;;;5093381;28;20069;-28
2022/05/04 08:48:08;;;;;;;8.75;3.58;;;;;;;;;;5093579;28;20051;-27
2022/05/04 08:50:35;;;;;;;8.07;3.55;;;;;;;;;;5093170;28;20089;-28
2022/05/04 08:53:02;;;;;;;8.32;3.80;;;;;;;;;;5093436;28;20050;-28
2022/05/04 08:55:28;;;;;;;5.80;3.67;;;;;;;;;;5093175;28;20068;-29
2022/05/04 08:57:54;;;;;;;10.05;3.67;;;;;;;;;;5093445;28;20059;-30
2022/05/04 09:00:20;;;;;;;8.63;3.70;;;;;;;;;;5093157;28;20126;-29
2022/05/04 09:02:47;;;;;;;7.10;3.85;;;;;;;;;;5093242;28;20047;-28
2022/05/04 09:05:26;;;;;;;8.25;3.83;;;;;;;;;;5093477;28;20105;-28
2022/05/04 09:07:57;;;;;;;6.38;3.92;;;;;;;;;;5093110;28;20058;-27
2022/05/04 09:10:24;;;;;;;6.82;3.65;;;;;;;;;;5092739;28;20040;-30
2022/05/04 09:12:51;;;;;;;7.70;4.28;;;;;;;;;;5093115;28;20032;-28
2022/05/04 09:15:27;;;;;;;9.35;4.43;;;;;;;;;;5093057;28;20039;-29
2022/05/04 09:18:07;;;;;;;11.13;4.22;;;;;;;;;;5091746;28;20047;-29
2022/05/04 09:20:53;;;;;;;11.10;4.20;;;;;;;;;;5092942;28;20493;-29
2022/05/04 09:23:24;;;;;;;8.63;4.32;;;;;;;;;;5093087;28;20078;-28
2022/05/04 09:25:51;;;;;;;6.60;4.28;;;;;;;;;;5092405;28;20044;-29
2022/05/04 09:28:18;;;;;;;8.23;4.93;;;;;;;;;;5091103;28;20044;-28
2022/05/04 09:30:45;;;;;;;9.18;4.63;;;;;;;;;;5092605;28;20036;-27
2022/05/04 09:33:12;;;;;;;9.52;4.43;;;;;;;;;;5092382;28;20040;-27
2022/05/04 09:35:41;;;;;;;8.25;3.80;;;;;;;;;;5100339;28;20047;-30
2022/05/04 09:46:37;;;;;;;7.30;3.53;;;;;;;;;;5093936;28;20100;-31
2022/05/04 09:49:13;;;;;;;9.27;3.65;;;;;;;;;;5090538;28;20076;-34
2022/05/04 09:51:39;;;;;;;7.85;3.80;;;;;;;;;;5091046;28;20123;-29
2022/05/04 09:54:19;;;;;;;8.38;4.05;;;;;;;;;;5089736;28;20076;-32
2022/05/04 09:56:46;;;;;;;7.78;3.92;;;;;;;;;;5092399;28;20108;-33
2022/05/04 09:59:14;;;;;;;4.63;3.50;;;;;;;;;;5091584;28;20501;-31
2022/05/04 10:01:40;;;;;;;10.50;4.18;;;;;;;;;;5091249;28;20044;-30
2022/05/04 10:04:06;;;;;;;10.27;3.53;;;;;;;;;;5091183;28;20127;-31
2022/05/04 10:06:33;;;;;;;8.02;3.17;;;;;;;;;;5104487;28;20407;-30
2022/05/04 10:09:01;;;;;;;7.15;3.15;;;;;;;;;;5112090;28;20055;-31
2022/05/04 10:11:30;;;;;;;5.53;3.58;;;;;;;;;;5109679;28;20040;-32
2022/05/04 10:14:01;;;;;;;8.15;3.50;;;;;;;;;;5111428;28;20497;-31
2022/05/04 10:16:27;;;;;;;7.40;3.55;;;;;;;;;;5097605;28;20378;-32
2022/05/04 10:18:54;;;;;;;5.78;3.05;;;;;;;;;;5090895;28;20047;-29
2022/05/04 10:21:21;;;;;;;6.65;3.50;;;;;;;;;;5100229;28;20443;-28
2022/05/04 10:23:48;;;;;;;7.28;3.40;;;;;;;;;;5111603;28;20043;-31
2022/05/04 10:26:15;;;;;;;6.25;3.38;;;;;;;;;;5101863;28;20135;-28
2022/05/04 10:31:29;;;;;;;8.07;3.20;;;;;;;;;;5091300;28;20500;-28
2022/05/04 10:33:57;;;;;;;9.95;3.80;;;;;;;;;;5091587;28;20412;-29
2022/05/04 10:36:30;;;;;;;7.50;3.53;;;;;;;;;;5091548;28;20120;-28
2022/05/04 10:38:57;;;;;;;7.13;2.97;;;;;;;;;;5091437;28;20089;-28
2022/05/04 10:41:33;;;;;;;7.68;2.97;;;;;;;;;;5091390;28;20371;-27
2022/05/04 10:43:59;;;;;;;9.48;3.40;;;;;;;;;;5090365;28;20055;-29
2022/05/04 10:46:25;;;;;;;8.25;3.20;;;;;;;;;;5091425;28;20040;-29
2022/05/04 10:48:52;;;;;;;6.10;3.15;;;;;;;;;;5091507;28;20094;-28
2022/05/04 10:51:28;;;;;;;7.65;3.80;;;;;;;;;;5096798;28;20111;-28
2022/05/04 10:54:12;;;;;;;7.30;3.15;;;;;;;;;;5110747;28;20462;-28
2022/05/04 10:56:41;;;;;;;5.05;3.03;;;;;;;;;;5111485;28;20049;-27
2022/05/04 10:59:07;;;;;;;4.10;3.10;;;;;;;;;;5111540;28;20040;-28
2022/05/04 11:01:35;;;;;;;8.13;3.17;;;;;;;;;;5111817;28;20043;-30
2022/05/04 11:04:04;;;;;;;7.78;3.10;;;;;;;;;;5111727;28;20074;-28
2022/05/04 11:06:40;;;;;;;5.53;2.90;;;;;;;;;;5112736;28;20357;-31
2022/05/04 11:09:07;;;;;;;5.82;3.10;;;;;;;;;;5114548;28;20071;-28
2022/05/04 11:11:34;;;;;;;9.38;3.22;;;;;;;;;;5115711;28;20039;-29
2022/05/04 11:14:00;;;;;;;4.95;2.60;;;;;;;;;;5114290;28;20040;-28
2022/05/04 11:16:28;;;;;;;6.32;2.90;;;;;;;;;;5115694;28;20039;-28
2022/05/04 11:18:54;;;;;;;4.53;2.65;;;;;;;;;;5115576;28;20393;-30
2022/05/04 11:21:20;;;;;;;4.57;2.85;;;;;;;;;;5111750;28;20036;-28
2022/05/04 11:23:50;;;;;;;5.38;2.80;;;;;;;;;;5095218;28;20469;-27
2022/05/04 11:26:18;;;;;;;7.70;3.17;;;;;;;;;;5094678;28;20040;-29
2022/05/04 11:28:44;;;;;;;6.65;2.80;;;;;;;;;;5094634;28;20044;-27
2022/05/04 11:31:11;;;;;;;5.88;2.90;;;;;;;;;;5094836;28;20044;-31
2022/05/04 11:33:37;;;;;;;7.70;3.10;;;;;;;;;;5095286;28;20044;-28
2022/05/04 11:36:03;;;;;;;7.13;2.95;;;;;;;;;;5094982;28;20040;-28
2022/05/04 11:38:29;;;;;;;6.05;2.88;;;;;;;;;;5114654;28;20085;-29
2022/05/04 11:40:55;;;;;;;6.28;2.70;;;;;;;;;;5115067;28;20085;-28
2022/05/04 11:43:34;;;;;;;7.88;3.45;;;;;;;;;;5114915;28;20405;-29
2022/05/04 11:46:06;;;;;;;7.03;3.13;;;;;;;;;;5114622;28;20065;-29
2022/05/04 11:48:32;;;;;;;7.00;2.95;;;;;;;;;;5094521;28;20044;-30
2022/05/04 11:50:58;;;;;;;7.32;3.03;;;;;;;;;;5094556;28;20089;-27
2022/05/04 11:53:25;;;;;;;4.10;2.90;;;;;;;;;;5094471;28;20458;-29
2022/05/04 11:55:51;;;;;;;8.52;3.47;;;;;;;;;;5092959;28;20047;-28
2022/05/04 11:58:17;;;;;;;5.28;2.95;;;;;;;;;;5110991;28;20481;-28
2022/05/04 12:00:44;;;;;;;5.93;2.88;;;;;;;;;;5097023;28;20044;-29
2022/05/04 12:03:11;;;;;;;6.60;2.60;;;;;;;;;;5094488;28;20086;-28
2022/05/04 12:05:38;;;;;;;5.93;2.65;;;;;;;;;;5094412;28;20044;-28
2022/05/04 12:08:06;;;;;;;9.60;3.30;;;;;;;;;;5094381;28;20044;-28
2022/05/04 12:10:33;;;;;;;6.60;3.15;;;;;;;;;;5093688;28;20050;-29
2022/05/04 12:13:00;;;;;;;7.35;3.08;;;;;;;;;;5094151;28;20466;-30
2022/05/04 12:15:29;;;;;;;7.45;3.17;;;;;;;;;;5093862;28;20040;-28
2022/05/04 12:17:59;;;;;;;6.60;2.95;;;;;;;;;;5093203;28;20048;-29
2022/05/04 12:20:26;;;;;;;5.10;2.67;;;;;;;;;;5093862;28;20066;-28
2022/05/04 12:22:53;;;;;;;5.38;3.05;;;;;;;;;;5093850;28;20081;-29
2022/05/04 12:25:20;;;;;;;8.75;2.63;;;;;;;;;;5093967;28;20036;-30
2022/05/04 12:27:47;;;;;;;5.63;2.40;;;;;;;;;;5093452;28;20048;-28
2022/05/04 12:33:08;;;;;;;5.60;2.45;;;;;;;;;;5083074;28;20140;-29
2022/05/04 12:35:35;;;;;;;6.18;2.63;;;;;;;;;;5092178;28;20055;-28
2022/05/04 12:38:03;;;;;;;5.80;2.80;;;;;;;;;;5093502;28;20165;-29
2022/05/04 12:40:31;;;;;;;5.05;2.70;;;;;;;;;;5093661;28;20115;-28
2022/05/04 12:42:59;;;;;;;4.65;2.80;;;;;;;;;;5093658;28;20447;-29
2022/05/04 12:45:25;;;;;;;4.88;2.80;;;;;;;;;;5093658;28;20040;-27
2022/05/04 12:47:52;;;;;;;6.13;2.80;;;;;;;;;;5093193;28;20040;-29
2022/05/04 12:50:20;;;;;;;5.47;2.50;;;;;;;;;;5092994;28;20042;-28
2022/05/04 12:52:47;;;;;;;6.15;2.40;;;;;;;;;;5098491;28;20036;-27
2022/05/04 12:55:13;;;;;;;9.00;3.05;;;;;;;;;;5113117;28;20036;-29
2022/05/04 12:57:39;;;;;;;5.45;2.88;;;;;;;;;;5113580;27;20043;-29
2022/05/04 13:00:05;;;;;;;6.60;2.97;;;;;;;;;;5113398;28;20131;-28
2022/05/04 13:02:32;;;;;;;6.00;2.70;;;;;;;;;;5112869;28;20134;-28
2022/05/04 13:04:58;;;;;;;7.20;3.20;;;;;;;;;;5093362;28;20039;-28
2022/05/04 13:07:24;;;;;;;5.93;2.83;;;;;;;;;;5093171;28;20089;-28
2022/05/04 13:09:50;;;;;;;6.78;2.58;;;;;;;;;;5093101;28;20161;-28
2022/05/04 13:12:16;;;;;;;5.32;2.92;;;;;;;;;;5093166;28;20040;-27
2022/05/04 13:14:42;;;;;;;4.82;2.75;;;;;;;;;;5093052;28;20512;-28
2022/05/04 13:17:08;;;;;;;6.35;3.17;;;;;;;;;;5092879;28;20036;-29
2022/05/04 13:19:36;;;;;;;5.05;2.53;;;;;;;;;;5093026;28;20051;-28
2022/05/04 13:22:02;;;;;;;5.90;3.53;;;;;;;;;;5092327;28;20044;-28
2022/05/04 13:24:28;;;;;;;6.00;2.75;;;;;;;;;;5092725;28;20048;-29
2022/05/04 13:26:54;;;;;;;4.57;2.83;;;;;;;;;;5091141;28;20409;-28
2022/05/04 13:29:20;;;;;;;6.72;2.60;;;;;;;;;;5091413;28;20039;-28
2022/05/04 13:31:46;;;;;;;4.32;2.55;;;;;;;;;;5092248;28;20071;-27
2022/05/04 13:34:12;;;;;;;6.20;2.65;;;;;;;;;;5092574;28;20044;-29
2022/05/04 13:36:38;;;;;;;5.45;2.67;;;;;;;;;;5092384;28;20396;-27
2022/05/04 13:39:04;;;;;;;5.68;2.70;;;;;;;;;;5092395;28;20067;-29
2022/05/04 13:41:30;;;;;;;4.80;2.25;;;;;;;;;;5092587;28;20047;-28
2022/05/04 13:43:57;;;;;;;6.10;2.80;;;;;;;;;;5092156;28;20093;-29
2022/05/04 13:46:24;;;;;;;4.85;2.78;;;;;;;;;;5092380;28;20050;-28
2022/05/04 13:48:50;;;;;;;5.20;2.72;;;;;;;;;;5092233;28;20040;-29
2022/05/04 13:54:00;;;;;;;7.13;2.83;;;;;;;;;;5092563;28;20040;-28
2022/05/04 13:56:27;;;;;;;5.05;2.40;;;;;;;;;;5092410;28;20537;-29
2022/05/04 13:58:53;;;;;;;5.80;2.63;;;;;;;;;;5092754;28;20389;-30
2022/05/04 14:01:20;;;;;;;4.25;2.42;;;;;;;;;;5091830;28;20036;-28
2022/05/04 14:03:48;;;;;;;7.18;2.40;;;;;;;;;;5092153;28;20040;-29
2022/05/04 14:06:15;;;;;;;4.95;2.15;;;;;;;;;;5091918;28;20043;-28
2022/05/04 14:08:42;;;;;;;4.30;2.30;;;;;;;;;;5091698;28;20133;-28
2022/05/04 14:11:08;;;;;;;6.88;2.63;;;;;;;;;;5091987;28;20500;-30
2022/05/04 14:13:34;;;;;;;6.18;3.00;;;;;;;;;;5092060;28;20421;-28
2022/05/04 14:16:00;;;;;;;5.75;3.00;;;;;;;;;;5092025;28;20036;-30
2022/05/04 14:18:30;;;;;;;5.20;2.70;;;;;;;;;;5091475;28;20089;-29
2022/05/04 14:20:59;;;;;;;6.07;2.63;;;;;;;;;;5091816;28;20039;-31
2022/05/04 14:23:25;;;;;;;5.40;2.88;;;;;;;;;;5091432;28;20117;-28
2022/05/04 14:25:51;;;;;;;5.22;2.50;;;;;;;;;;5091481;28;20051;-29
2022/05/04 14:28:19;;;;;;;5.80;2.80;;;;;;;;;;5102711;27;20100;-29
2022/05/04 14:30:46;;;;;;;6.43;2.80;;;;;;;;;;5132513;27;20503;-28
2022/05/04 14:33:13;;;;;;;4.68;2.65;;;;;;;;;;5127652;27;20043;-28
2022/05/04 14:35:39;;;;;;;4.55;2.50;;;;;;;;;;5112134;28;20524;-27
2022/05/04 14:38:05;;;;;;;6.55;3.05;;;;;;;;;;5112012;28;20469;-28
2022/05/04 14:40:32;;;;;;;4.47;2.72;;;;;;;;;;5111673;28;20481;-29
2022/05/04 14:42:58;;;;;;;5.30;2.75;;;;;;;;;;5104217;28;20069;-28
2022/05/04 14:45:26;;;;;;;7.03;3.08;;;;;;;;;;5093994;28;20461;-29
2022/05/04 14:47:53;;;;;;;3.40;2.85;;;;;;;;;;5091634;28;20153;-29
2022/05/04 14:50:19;;;;;;;5.55;3.03;;;;;;;;;;5089782;28;20044;-27
2022/05/04 14:52:45;;;;;;;4.95;2.85;;;;;;;;;;5091351;28;20127;-29
2022/05/04 14:55:11;;;;;;;6.25;3.00;;;;;;;;;;5091303;28;20401;-28
2022/05/04 14:57:37;;;;;;;8.20;3.53;;;;;;;;;;5091225;28;20517;-28
2022/05/04 15:00:05;;;;;;;5.50;3.53;;;;;;;;;;5103199;28;20118;-29
2022/05/04 15:02:31;;;;;;;9.40;3.45;;;;;;;;;;5111365;28;20074;-28
2022/05/04 15:05:05;;;;;;;3.97;2.70;;;;;;;;;;5111829;28;20092;-27
2022/05/04 15:07:32;;;;;;;4.68;2.88;;;;;;;;;;5096226;28;20032;-29
2022/05/04 15:09:58;;;;;;;4.53;2.80;;;;;;;;;;5096838;28;20032;-28
2022/05/04 15:12:24;;;;;;;4.65;2.78;;;;;;;;;;5111603;28;20062;-27
2022/05/04 15:14:50;;;;;;;6.88;3.25;;;;;;;;;;5111046;28;20039;-27
2022/05/04 15:17:16;;;;;;;5.70;2.63;;;;;;;;;;5111721;28;20054;-27
2022/05/04 15:19:42;;;;;;;6.22;3.65;;;;;;;;;;5111439;28;20051;-27
2022/05/04 15:22:09;;;;;;;4.93;2.75;;;;;;;;;;5103351;28;20043;-28